sensor_id;sensor_type;location;lat;lon;timestamp;P1;durP1;ratioP1;P2;durP2;ratioP2
80163;SDS011;70071;55.130;61.268;2023-05-23T00:00:56;20.52;;;13.77;;
80163;SDS011;70071;55.130;61.268;2023-05-23T00:03:23;21.10;;;12.50;;
80163;SDS011;70071;55.130;61.268;2023-05-23T00:05:50;19.55;;;13.27;;
80163;SDS011;70071;55.130;61.268;2023-05-23T00:08:16;17.23;;;13.05;;
80163;SDS011;70071;55.130;61.268;2023-05-23T00:10:43;18.38;;;12.00;;
80163;SDS011;70071;55.130;61.268;2023-05-23T00:13:10;20.70;;;12.85;;
80163;SDS011;70071;55.130;61.268;2023-05-23T00:15:39;19.25;;;12.10;;
80163;SDS011;70071;55.130;61.268;2023-05-23T00:18:08;20.70;;;12.45;;
80163;SDS011;70071;55.130;61.268;2023-05-23T00:20:41;15.50;;;11.73;;
80163;SDS011;70071;55.130;61.268;2023-05-23T00:23:08;22.92;;;13.18;;
80163;SDS011;70071;55.130;61.268;2023-05-23T00:25:35;19.25;;;12.80;;
80163;SDS011;70071;55.130;61.268;2023-05-23T00:28:05;15.85;;;12.00;;
80163;SDS011;70071;55.130;61.268;2023-05-23T00:30:31;17.02;;;12.32;;
80163;SDS011;70071;55.130;61.268;2023-05-23T00:33:00;16.20;;;12.00;;
80163;SDS011;70071;55.130;61.268;2023-05-23T00:35:26;18.63;;;12.55;;
80163;SDS011;70071;55.130;61.268;2023-05-23T00:37:52;17.52;;;11.85;;
80163;SDS011;70071;55.130;61.268;2023-05-23T00:40:18;16.23;;;11.30;;
80163;SDS011;70071;55.130;61.268;2023-05-23T00:42:46;17.77;;;11.52;;
80163;SDS011;70071;55.130;61.268;2023-05-23T00:47:38;19.35;;;11.70;;
80163;SDS011;70071;55.130;61.268;2023-05-23T00:50:07;15.65;;;11.20;;
80163;SDS011;70071;55.130;61.268;2023-05-23T00:52:34;18.83;;;12.45;;
80163;SDS011;70071;55.130;61.268;2023-05-23T00:55:00;17.73;;;11.57;;
80163;SDS011;70071;55.130;61.268;2023-05-23T00:57:27;17.92;;;11.80;;
80163;SDS011;70071;55.130;61.268;2023-05-23T00:59:53;15.63;;;10.93;;
80163;SDS011;70071;55.130;61.268;2023-05-23T01:02:20;16.50;;;10.93;;
80163;SDS011;70071;55.130;61.268;2023-05-23T01:04:47;15.52;;;11.05;;
80163;SDS011;70071;55.130;61.268;2023-05-23T01:07:18;16.60;;;11.88;;
80163;SDS011;70071;55.130;61.268;2023-05-23T01:09:45;14.57;;;11.27;;
80163;SDS011;70071;55.130;61.268;2023-05-23T01:15:16;19.02;;;11.40;;
80163;SDS011;70071;55.130;61.268;2023-05-23T01:20:37;17.35;;;11.73;;
80163;SDS011;70071;55.130;61.268;2023-05-23T01:23:18;16.25;;;12.23;;
80163;SDS011;70071;55.130;61.268;2023-05-23T01:28:44;17.85;;;12.77;;
80163;SDS011;70071;55.130;61.268;2023-05-23T01:31:12;15.23;;;11.85;;
80163;SDS011;70071;55.130;61.268;2023-05-23T01:33:41;21.15;;;12.55;;
80163;SDS011;70071;55.130;61.268;2023-05-23T01:36:08;16.20;;;12.27;;
80163;SDS011;70071;55.130;61.268;2023-05-23T01:38:39;24.42;;;13.07;;
80163;SDS011;70071;55.130;61.268;2023-05-23T01:41:05;18.00;;;12.68;;
80163;SDS011;70071;55.130;61.268;2023-05-23T01:43:31;19.73;;;13.23;;
80163;SDS011;70071;55.130;61.268;2023-05-23T01:48:24;17.40;;;10.98;;
80163;SDS011;70071;55.130;61.268;2023-05-23T01:50:52;19.88;;;12.75;;
80163;SDS011;70071;55.130;61.268;2023-05-23T01:53:20;20.30;;;13.00;;
80163;SDS011;70071;55.130;61.268;2023-05-23T01:55:47;19.00;;;12.05;;
80163;SDS011;70071;55.130;61.268;2023-05-23T01:58:13;19.58;;;12.68;;
80163;SDS011;70071;55.130;61.268;2023-05-23T02:00:39;19.67;;;12.27;;
80163;SDS011;70071;55.130;61.268;2023-05-23T02:03:05;16.75;;;12.68;;
80163;SDS011;70071;55.130;61.268;2023-05-23T02:05:31;19.35;;;13.90;;
80163;SDS011;70071;55.130;61.268;2023-05-23T02:07:59;18.58;;;13.27;;
80163;SDS011;70071;55.130;61.268;2023-05-23T02:10:25;17.02;;;14.05;;
80163;SDS011;70071;55.130;61.268;2023-05-23T02:12:51;20.15;;;13.45;;
80163;SDS011;70071;55.130;61.268;2023-05-23T02:15:17;17.73;;;12.82;;
80163;SDS011;70071;55.130;61.268;2023-05-23T02:17:43;19.30;;;12.60;;
80163;SDS011;70071;55.130;61.268;2023-05-23T02:20:09;20.13;;;12.77;;
80163;SDS011;70071;55.130;61.268;2023-05-23T02:25:00;24.40;;;13.77;;
80163;SDS011;70071;55.130;61.268;2023-05-23T02:27:29;19.63;;;13.55;;
80163;SDS011;70071;55.130;61.268;2023-05-23T02:29:55;17.95;;;13.20;;
80163;SDS011;70071;55.130;61.268;2023-05-23T02:32:21;23.85;;;14.13;;
80163;SDS011;70071;55.130;61.268;2023-05-23T02:34:47;24.35;;;14.05;;
80163;SDS011;70071;55.130;61.268;2023-05-23T02:37:14;18.98;;;13.82;;
80163;SDS011;70071;55.130;61.268;2023-05-23T02:39:41;26.15;;;13.80;;
80163;SDS011;70071;55.130;61.268;2023-05-23T02:42:08;22.60;;;15.07;;
80163;SDS011;70071;55.130;61.268;2023-05-23T02:44:34;23.02;;;14.68;;
80163;SDS011;70071;55.130;61.268;2023-05-23T02:47:00;26.05;;;16.25;;
80163;SDS011;70071;55.130;61.268;2023-05-23T02:49:25;26.08;;;15.10;;
80163;SDS011;70071;55.130;61.268;2023-05-23T02:51:51;24.58;;;14.23;;
80163;SDS011;70071;55.130;61.268;2023-05-23T02:54:17;24.08;;;14.73;;
80163;SDS011;70071;55.130;61.268;2023-05-23T02:56:44;23.73;;;14.15;;
80163;SDS011;70071;55.130;61.268;2023-05-23T02:59:10;25.27;;;14.05;;
80163;SDS011;70071;55.130;61.268;2023-05-23T03:01:37;23.00;;;15.18;;
80163;SDS011;70071;55.130;61.268;2023-05-23T03:04:02;22.77;;;16.00;;
80163;SDS011;70071;55.130;61.268;2023-05-23T03:06:28;23.45;;;15.63;;
80163;SDS011;70071;55.130;61.268;2023-05-23T03:08:56;26.88;;;15.57;;
80163;SDS011;70071;55.130;61.268;2023-05-23T03:11:22;27.48;;;14.70;;
80163;SDS011;70071;55.130;61.268;2023-05-23T03:13:48;22.33;;;14.63;;
80163;SDS011;70071;55.130;61.268;2023-05-23T03:16:14;25.08;;;14.18;;
80163;SDS011;70071;55.130;61.268;2023-05-23T03:18:39;21.20;;;14.77;;
80163;SDS011;70071;55.130;61.268;2023-05-23T03:21:08;23.95;;;13.23;;
80163;SDS011;70071;55.130;61.268;2023-05-23T03:23:34;21.73;;;13.45;;
80163;SDS011;70071;55.130;61.268;2023-05-23T03:26:01;22.52;;;13.55;;
80163;SDS011;70071;55.130;61.268;2023-05-23T03:28:29;22.67;;;14.20;;
80163;SDS011;70071;55.130;61.268;2023-05-23T03:30:56;21.63;;;13.85;;
80163;SDS011;70071;55.130;61.268;2023-05-23T03:33:22;21.65;;;13.70;;
80163;SDS011;70071;55.130;61.268;2023-05-23T03:35:49;22.75;;;13.23;;
80163;SDS011;70071;55.130;61.268;2023-05-23T03:38:15;24.85;;;14.18;;
80163;SDS011;70071;55.130;61.268;2023-05-23T03:40:41;21.10;;;13.27;;
80163;SDS011;70071;55.130;61.268;2023-05-23T03:43:07;22.98;;;14.45;;
80163;SDS011;70071;55.130;61.268;2023-05-23T03:45:33;21.45;;;13.05;;
80163;SDS011;70071;55.130;61.268;2023-05-23T03:47:59;22.92;;;14.13;;
80163;SDS011;70071;55.130;61.268;2023-05-23T03:50:26;18.88;;;12.93;;
80163;SDS011;70071;55.130;61.268;2023-05-23T03:55:19;18.55;;;11.07;;
80163;SDS011;70071;55.130;61.268;2023-05-23T03:57:48;20.55;;;12.23;;
80163;SDS011;70071;55.130;61.268;2023-05-23T04:00:16;17.13;;;12.25;;
80163;SDS011;70071;55.130;61.268;2023-05-23T04:02:43;18.77;;;12.27;;
80163;SDS011;70071;55.130;61.268;2023-05-23T04:05:14;18.10;;;12.63;;
80163;SDS011;70071;55.130;61.268;2023-05-23T04:07:40;16.80;;;11.18;;
80163;SDS011;70071;55.130;61.268;2023-05-23T04:10:07;18.10;;;11.95;;
80163;SDS011;70071;55.130;61.268;2023-05-23T04:12:33;19.80;;;11.52;;
80163;SDS011;70071;55.130;61.268;2023-05-23T04:17:25;18.25;;;10.63;;
80163;SDS011;70071;55.130;61.268;2023-05-23T04:19:55;16.33;;;10.63;;
80163;SDS011;70071;55.130;61.268;2023-05-23T04:22:21;24.20;;;10.90;;
80163;SDS011;70071;55.130;61.268;2023-05-23T04:24:47;15.90;;;9.70;;
80163;SDS011;70071;55.130;61.268;2023-05-23T04:27:13;14.35;;;8.98;;
80163;SDS011;70071;55.130;61.268;2023-05-23T04:29:39;16.17;;;8.35;;
80163;SDS011;70071;55.130;61.268;2023-05-23T04:32:05;14.13;;;9.27;;
80163;SDS011;70071;55.130;61.268;2023-05-23T04:34:32;12.52;;;7.93;;
80163;SDS011;70071;55.130;61.268;2023-05-23T04:36:59;11.02;;;7.93;;
80163;SDS011;70071;55.130;61.268;2023-05-23T04:39:27;12.65;;;7.43;;
80163;SDS011;70071;55.130;61.268;2023-05-23T04:41:55;11.10;;;7.20;;
80163;SDS011;70071;55.130;61.268;2023-05-23T04:44:22;14.88;;;7.75;;
80163;SDS011;70071;55.130;61.268;2023-05-23T04:46:48;10.85;;;8.00;;
80163;SDS011;70071;55.130;61.268;2023-05-23T04:49:14;13.63;;;8.05;;
80163;SDS011;70071;55.130;61.268;2023-05-23T04:51:41;11.30;;;7.32;;
80163;SDS011;70071;55.130;61.268;2023-05-23T04:54:08;11.90;;;6.97;;
80163;SDS011;70071;55.130;61.268;2023-05-23T04:56:33;11.10;;;7.78;;
80163;SDS011;70071;55.130;61.268;2023-05-23T04:59:00;11.27;;;7.20;;
80163;SDS011;70071;55.130;61.268;2023-05-23T05:01:26;11.63;;;7.40;;
80163;SDS011;70071;55.130;61.268;2023-05-23T05:06:17;10.05;;;6.50;;
80163;SDS011;70071;55.130;61.268;2023-05-23T05:08:45;9.90;;;6.95;;
80163;SDS011;70071;55.130;61.268;2023-05-23T05:11:11;11.57;;;7.20;;
80163;SDS011;70071;55.130;61.268;2023-05-23T05:13:37;10.02;;;7.18;;
80163;SDS011;70071;55.130;61.268;2023-05-23T05:16:02;9.73;;;6.72;;
80163;SDS011;70071;55.130;61.268;2023-05-23T05:18:29;10.70;;;7.13;;
80163;SDS011;70071;55.130;61.268;2023-05-23T05:20:55;10.95;;;6.68;;
80163;SDS011;70071;55.130;61.268;2023-05-23T05:23:23;11.35;;;7.18;;
80163;SDS011;70071;55.130;61.268;2023-05-23T05:25:50;8.68;;;6.63;;
80163;SDS011;70071;55.130;61.268;2023-05-23T05:30:43;10.15;;;7.43;;
80163;SDS011;70071;55.130;61.268;2023-05-23T05:33:10;9.20;;;6.70;;
80163;SDS011;70071;55.130;61.268;2023-05-23T05:38:02;10.05;;;7.10;;
80163;SDS011;70071;55.130;61.268;2023-05-23T05:40:30;11.95;;;7.60;;
80163;SDS011;70071;55.130;61.268;2023-05-23T05:42:57;11.00;;;7.63;;
80163;SDS011;70071;55.130;61.268;2023-05-23T05:45:23;12.10;;;7.70;;
80163;SDS011;70071;55.130;61.268;2023-05-23T05:50:16;10.82;;;7.00;;
80163;SDS011;70071;55.130;61.268;2023-05-23T05:55:08;9.30;;;7.38;;
80163;SDS011;70071;55.130;61.268;2023-05-23T05:57:39;9.30;;;7.25;;
80163;SDS011;70071;55.130;61.268;2023-05-23T06:00:05;8.65;;;6.70;;
80163;SDS011;70071;55.130;61.268;2023-05-23T06:02:43;7.90;;;5.97;;
80163;SDS011;70071;55.130;61.268;2023-05-23T06:07:41;10.27;;;7.10;;
80163;SDS011;70071;55.130;61.268;2023-05-23T06:10:08;11.82;;;7.22;;
80163;SDS011;70071;55.130;61.268;2023-05-23T06:12:38;11.68;;;6.75;;
80163;SDS011;70071;55.130;61.268;2023-05-23T06:15:04;9.15;;;6.70;;
80163;SDS011;70071;55.130;61.268;2023-05-23T06:17:32;10.38;;;6.50;;
80163;SDS011;70071;55.130;61.268;2023-05-23T06:22:24;7.07;;;5.40;;
80163;SDS011;70071;55.130;61.268;2023-05-23T06:27:15;8.07;;;5.57;;
80163;SDS011;70071;55.130;61.268;2023-05-23T06:32:06;8.20;;;4.95;;
80163;SDS011;70071;55.130;61.268;2023-05-23T06:36:58;7.93;;;5.68;;
80163;SDS011;70071;55.130;61.268;2023-05-23T06:41:49;9.00;;;5.97;;
80163;SDS011;70071;55.130;61.268;2023-05-23T06:44:15;7.90;;;6.00;;
80163;SDS011;70071;55.130;61.268;2023-05-23T06:46:42;7.18;;;5.13;;
80163;SDS011;70071;55.130;61.268;2023-05-23T06:49:09;8.20;;;5.85;;
80163;SDS011;70071;55.130;61.268;2023-05-23T06:54:01;9.05;;;5.88;;
80163;SDS011;70071;55.130;61.268;2023-05-23T06:58:52;7.13;;;5.70;;
80163;SDS011;70071;55.130;61.268;2023-05-23T07:03:43;7.95;;;5.03;;
80163;SDS011;70071;55.130;61.268;2023-05-23T07:06:10;6.00;;;5.13;;
80163;SDS011;70071;55.130;61.268;2023-05-23T07:08:36;5.85;;;5.20;;
80163;SDS011;70071;55.130;61.268;2023-05-23T07:11:03;6.68;;;5.15;;
80163;SDS011;70071;55.130;61.268;2023-05-23T07:13:31;7.68;;;5.20;;
80163;SDS011;70071;55.130;61.268;2023-05-23T07:15:56;7.50;;;5.63;;
80163;SDS011;70071;55.130;61.268;2023-05-23T07:18:22;5.78;;;4.90;;
80163;SDS011;70071;55.130;61.268;2023-05-23T07:20:48;5.72;;;5.07;;
80163;SDS011;70071;55.130;61.268;2023-05-23T07:23:15;8.00;;;5.55;;
80163;SDS011;70071;55.130;61.268;2023-05-23T07:25:41;6.15;;;5.45;;
80163;SDS011;70071;55.130;61.268;2023-05-23T07:28:08;6.72;;;5.40;;
80163;SDS011;70071;55.130;61.268;2023-05-23T07:30:34;7.43;;;5.25;;
80163;SDS011;70071;55.130;61.268;2023-05-23T07:33:00;7.20;;;5.50;;
80163;SDS011;70071;55.130;61.268;2023-05-23T07:35:26;6.60;;;4.72;;
80163;SDS011;70071;55.130;61.268;2023-05-23T07:37:52;7.82;;;5.43;;
80163;SDS011;70071;55.130;61.268;2023-05-23T07:40:18;6.07;;;4.70;;
80163;SDS011;70071;55.130;61.268;2023-05-23T07:42:45;6.70;;;4.70;;
80163;SDS011;70071;55.130;61.268;2023-05-23T07:45:11;6.13;;;5.20;;
80163;SDS011;70071;55.130;61.268;2023-05-23T07:47:38;6.50;;;5.07;;
80163;SDS011;70071;55.130;61.268;2023-05-23T07:50:04;7.53;;;5.65;;
80163;SDS011;70071;55.130;61.268;2023-05-23T07:52:31;6.65;;;5.50;;
80163;SDS011;70071;55.130;61.268;2023-05-23T07:54:58;8.80;;;6.38;;
80163;SDS011;70071;55.130;61.268;2023-05-23T07:57:24;5.13;;;4.15;;
80163;SDS011;70071;55.130;61.268;2023-05-23T07:59:51;8.50;;;5.60;;
80163;SDS011;70071;55.130;61.268;2023-05-23T08:02:18;7.30;;;5.40;;
80163;SDS011;70071;55.130;61.268;2023-05-23T08:04:45;7.88;;;5.60;;
80163;SDS011;70071;55.130;61.268;2023-05-23T08:07:12;7.00;;;5.68;;
80163;SDS011;70071;55.130;61.268;2023-05-23T08:09:38;8.40;;;5.25;;
80163;SDS011;70071;55.130;61.268;2023-05-23T08:12:05;7.05;;;4.97;;
80163;SDS011;70071;55.130;61.268;2023-05-23T08:14:32;6.40;;;5.20;;
80163;SDS011;70071;55.130;61.268;2023-05-23T08:16:58;6.00;;;5.10;;
80163;SDS011;70071;55.130;61.268;2023-05-23T08:19:24;6.30;;;5.18;;
80163;SDS011;70071;55.130;61.268;2023-05-23T08:21:50;6.20;;;5.15;;
80163;SDS011;70071;55.130;61.268;2023-05-23T08:24:17;7.18;;;5.35;;
80163;SDS011;70071;55.130;61.268;2023-05-23T08:26:44;7.15;;;5.72;;
80163;SDS011;70071;55.130;61.268;2023-05-23T08:29:10;8.20;;;5.40;;
80163;SDS011;70071;55.130;61.268;2023-05-23T08:31:36;6.13;;;5.53;;
80163;SDS011;70071;55.130;61.268;2023-05-23T08:34:02;8.93;;;5.50;;
80163;SDS011;70071;55.130;61.268;2023-05-23T08:36:28;9.10;;;5.38;;
80163;SDS011;70071;55.130;61.268;2023-05-23T08:38:56;6.20;;;5.50;;
80163;SDS011;70071;55.130;61.268;2023-05-23T08:41:22;7.10;;;5.78;;
80163;SDS011;70071;55.130;61.268;2023-05-23T08:43:49;9.65;;;6.20;;
80163;SDS011;70071;55.130;61.268;2023-05-23T08:46:15;6.63;;;5.43;;
80163;SDS011;70071;55.130;61.268;2023-05-23T08:48:41;6.68;;;5.38;;
80163;SDS011;70071;55.130;61.268;2023-05-23T08:51:08;7.15;;;5.78;;
80163;SDS011;70071;55.130;61.268;2023-05-23T08:53:38;7.60;;;5.60;;
80163;SDS011;70071;55.130;61.268;2023-05-23T08:56:07;6.72;;;4.88;;
80163;SDS011;70071;55.130;61.268;2023-05-23T08:58:34;6.20;;;5.43;;
80163;SDS011;70071;55.130;61.268;2023-05-23T09:01:00;6.68;;;5.93;;
80163;SDS011;70071;55.130;61.268;2023-05-23T09:03:26;8.95;;;5.78;;
80163;SDS011;70071;55.130;61.268;2023-05-23T09:05:53;7.22;;;5.65;;
80163;SDS011;70071;55.130;61.268;2023-05-23T09:08:19;8.07;;;5.55;;
80163;SDS011;70071;55.130;61.268;2023-05-23T09:10:48;6.43;;;5.35;;
80163;SDS011;70071;55.130;61.268;2023-05-23T09:13:16;6.65;;;4.57;;
80163;SDS011;70071;55.130;61.268;2023-05-23T09:16:04;9.98;;;5.47;;
80163;SDS011;70071;55.130;61.268;2023-05-23T09:18:38;6.68;;;5.55;;
80163;SDS011;70071;55.130;61.268;2023-05-23T09:21:06;7.72;;;5.53;;
80163;SDS011;70071;55.130;61.268;2023-05-23T09:23:37;7.55;;;5.80;;
80163;SDS011;70071;55.130;61.268;2023-05-23T09:26:05;7.85;;;5.75;;
80163;SDS011;70071;55.130;61.268;2023-05-23T09:28:32;8.48;;;5.85;;
80163;SDS011;70071;55.130;61.268;2023-05-23T09:30:58;7.03;;;5.45;;
80163;SDS011;70071;55.130;61.268;2023-05-23T09:33:47;11.18;;;5.38;;
80163;SDS011;70071;55.130;61.268;2023-05-23T09:36:14;6.43;;;5.00;;
80163;SDS011;70071;55.130;61.268;2023-05-23T09:38:42;7.00;;;5.82;;
80163;SDS011;70071;55.130;61.268;2023-05-23T09:41:11;6.40;;;5.63;;
80163;SDS011;70071;55.130;61.268;2023-05-23T09:43:37;7.60;;;6.28;;
80163;SDS011;70071;55.130;61.268;2023-05-23T09:46:27;7.15;;;5.93;;
80163;SDS011;70071;55.130;61.268;2023-05-23T09:48:56;6.20;;;5.60;;
80163;SDS011;70071;55.130;61.268;2023-05-23T09:51:24;6.82;;;6.13;;
80163;SDS011;70071;55.130;61.268;2023-05-23T09:53:50;7.20;;;6.50;;
80163;SDS011;70071;55.130;61.268;2023-05-23T09:56:17;8.38;;;5.82;;
80163;SDS011;70071;55.130;61.268;2023-05-23T09:58:46;8.13;;;5.47;;
80163;SDS011;70071;55.130;61.268;2023-05-23T10:01:13;6.97;;;5.65;;
80163;SDS011;70071;55.130;61.268;2023-05-23T10:06:16;6.15;;;5.50;;
80163;SDS011;70071;55.130;61.268;2023-05-23T10:09:11;6.70;;;5.63;;
80163;SDS011;70071;55.130;61.268;2023-05-23T10:14:45;7.53;;;6.25;;
80163;SDS011;70071;55.130;61.268;2023-05-23T10:17:18;8.38;;;6.68;;
80163;SDS011;70071;55.130;61.268;2023-05-23T10:19:52;7.47;;;6.00;;
80163;SDS011;70071;55.130;61.268;2023-05-23T10:22:28;7.10;;;6.40;;
80163;SDS011;70071;55.130;61.268;2023-05-23T10:24:57;6.07;;;5.47;;
80163;SDS011;70071;55.130;61.268;2023-05-23T10:27:23;6.75;;;5.60;;
80163;SDS011;70071;55.130;61.268;2023-05-23T10:29:49;6.80;;;5.70;;
80163;SDS011;70071;55.130;61.268;2023-05-23T10:32:15;6.30;;;5.43;;
80163;SDS011;70071;55.130;61.268;2023-05-23T10:43:11;6.63;;;5.85;;
80163;SDS011;70071;55.130;61.268;2023-05-23T10:45:42;8.18;;;6.10;;
80163;SDS011;70071;55.130;61.268;2023-05-23T10:49:09;8.68;;;7.00;;
80163;SDS011;70071;55.130;61.268;2023-05-23T10:51:09;7.20;;;6.50;;
80163;SDS011;70071;55.130;61.268;2023-05-23T10:53:36;9.73;;;6.72;;
80163;SDS011;70071;55.130;61.268;2023-05-23T10:56:07;6.88;;;5.97;;
80163;SDS011;70071;55.130;61.268;2023-05-23T10:58:35;6.18;;;5.43;;
80163;SDS011;70071;55.130;61.268;2023-05-23T11:01:07;12.55;;;7.47;;
80163;SDS011;70071;55.130;61.268;2023-05-23T11:09:16;9.63;;;7.30;;
80163;SDS011;70071;55.130;61.268;2023-05-23T11:11:52;8.40;;;7.53;;
80163;SDS011;70071;55.130;61.268;2023-05-23T11:14:32;10.77;;;7.97;;
80163;SDS011;70071;55.130;61.268;2023-05-23T11:17:16;9.25;;;7.50;;
80163;SDS011;70071;55.130;61.268;2023-05-23T11:20:00;8.88;;;7.35;;
80163;SDS011;70071;55.130;61.268;2023-05-23T11:22:32;11.15;;;7.80;;
80163;SDS011;70071;55.130;61.268;2023-05-23T11:24:59;10.43;;;8.35;;
80163;SDS011;70071;55.130;61.268;2023-05-23T11:27:26;9.35;;;7.47;;
80163;SDS011;70071;55.130;61.268;2023-05-23T11:30:07;8.70;;;7.38;;
80163;SDS011;70071;55.130;61.268;2023-05-23T11:32:40;9.73;;;7.40;;
80163;SDS011;70071;55.130;61.268;2023-05-23T11:35:13;8.00;;;6.43;;
80163;SDS011;70071;55.130;61.268;2023-05-23T11:37:40;11.15;;;7.45;;
80163;SDS011;70071;55.130;61.268;2023-05-23T11:42:56;10.18;;;7.05;;
80163;SDS011;70071;55.130;61.268;2023-05-23T11:45:23;10.20;;;7.28;;
80163;SDS011;70071;55.130;61.268;2023-05-23T11:47:50;9.50;;;7.32;;
80163;SDS011;70071;55.130;61.268;2023-05-23T11:50:17;9.38;;;6.70;;
80163;SDS011;70071;55.130;61.268;2023-05-23T11:52:45;8.13;;;7.32;;
80163;SDS011;70071;55.130;61.268;2023-05-23T11:55:17;7.78;;;6.88;;
80163;SDS011;70071;55.130;61.268;2023-05-23T11:57:44;7.63;;;6.82;;
80163;SDS011;70071;55.130;61.268;2023-05-23T12:00:19;10.10;;;6.63;;
80163;SDS011;70071;55.130;61.268;2023-05-23T12:02:45;9.43;;;7.40;;
80163;SDS011;70071;55.130;61.268;2023-05-23T12:05:13;7.28;;;6.25;;
80163;SDS011;70071;55.130;61.268;2023-05-23T12:07:44;8.68;;;7.22;;
80163;SDS011;70071;55.130;61.268;2023-05-23T12:10:14;7.85;;;6.45;;
80163;SDS011;70071;55.130;61.268;2023-05-23T12:12:41;9.43;;;7.50;;
80163;SDS011;70071;55.130;61.268;2023-05-23T12:15:09;9.48;;;6.88;;
80163;SDS011;70071;55.130;61.268;2023-05-23T12:17:36;8.30;;;7.00;;
80163;SDS011;70071;55.130;61.268;2023-05-23T12:20:06;7.50;;;6.68;;
80163;SDS011;70071;55.130;61.268;2023-05-23T12:22:33;10.55;;;6.90;;
80163;SDS011;70071;55.130;61.268;2023-05-23T12:25:00;7.38;;;6.57;;
80163;SDS011;70071;55.130;61.268;2023-05-23T12:27:33;8.05;;;7.07;;
80163;SDS011;70071;55.130;61.268;2023-05-23T12:30:05;9.15;;;6.63;;
80163;SDS011;70071;55.130;61.268;2023-05-23T12:32:33;8.65;;;6.97;;
80163;SDS011;70071;55.130;61.268;2023-05-23T12:35:04;6.95;;;6.22;;
80163;SDS011;70071;55.130;61.268;2023-05-23T12:37:30;7.18;;;6.47;;
80163;SDS011;70071;55.130;61.268;2023-05-23T12:39:56;10.63;;;7.03;;
80163;SDS011;70071;55.130;61.268;2023-05-23T12:42:22;10.02;;;7.88;;
80163;SDS011;70071;55.130;61.268;2023-05-23T12:44:50;8.75;;;7.80;;
80163;SDS011;70071;55.130;61.268;2023-05-23T12:47:19;9.70;;;7.80;;
80163;SDS011;70071;55.130;61.268;2023-05-23T12:49:45;10.13;;;7.47;;
80163;SDS011;70071;55.130;61.268;2023-05-23T12:52:32;8.10;;;7.25;;
80163;SDS011;70071;55.130;61.268;2023-05-23T12:55:16;7.93;;;7.22;;
80163;SDS011;70071;55.130;61.268;2023-05-23T12:57:46;7.90;;;7.20;;
80163;SDS011;70071;55.130;61.268;2023-05-23T13:05:31;8.07;;;7.28;;
80163;SDS011;70071;55.130;61.268;2023-05-23T13:07:57;11.30;;;7.55;;
80163;SDS011;70071;55.130;61.268;2023-05-23T13:10:23;9.88;;;7.70;;
80163;SDS011;70071;55.130;61.268;2023-05-23T13:12:49;9.05;;;7.22;;
80163;SDS011;70071;55.130;61.268;2023-05-23T13:15:16;9.00;;;6.68;;
80163;SDS011;70071;55.130;61.268;2023-05-23T13:17:42;8.95;;;7.95;;
80163;SDS011;70071;55.130;61.268;2023-05-23T13:20:09;7.85;;;7.07;;
80163;SDS011;70071;55.130;61.268;2023-05-23T13:22:35;7.63;;;6.93;;
80163;SDS011;70071;55.130;61.268;2023-05-23T13:25:01;8.52;;;7.70;;
80163;SDS011;70071;55.130;61.268;2023-05-23T13:27:27;10.50;;;8.10;;
80163;SDS011;70071;55.130;61.268;2023-05-23T13:29:53;9.35;;;8.43;;
80163;SDS011;70071;55.130;61.268;2023-05-23T13:32:20;10.18;;;8.57;;
80163;SDS011;70071;55.130;61.268;2023-05-23T13:34:45;11.27;;;9.45;;
80163;SDS011;70071;55.130;61.268;2023-05-23T13:37:12;12.05;;;10.45;;
80163;SDS011;70071;55.130;61.268;2023-05-23T13:39:38;11.15;;;10.05;;
80163;SDS011;70071;55.130;61.268;2023-05-23T13:42:04;11.55;;;10.38;;
80163;SDS011;70071;55.130;61.268;2023-05-23T13:44:30;13.00;;;10.13;;
80163;SDS011;70071;55.130;61.268;2023-05-23T13:46:56;11.38;;;9.80;;
80163;SDS011;70071;55.130;61.268;2023-05-23T13:49:23;14.48;;;11.00;;
80163;SDS011;70071;55.130;61.268;2023-05-23T13:51:51;11.27;;;10.18;;
80163;SDS011;70071;55.130;61.268;2023-05-23T13:54:19;12.30;;;10.10;;
80163;SDS011;70071;55.130;61.268;2023-05-23T13:56:50;13.00;;;10.43;;
80163;SDS011;70071;55.130;61.268;2023-05-23T13:59:16;12.65;;;10.13;;
80163;SDS011;70071;55.130;61.268;2023-05-23T14:01:45;13.88;;;9.85;;
80163;SDS011;70071;55.130;61.268;2023-05-23T14:04:12;13.35;;;10.68;;
80163;SDS011;70071;55.130;61.268;2023-05-23T14:06:38;12.27;;;10.98;;
80163;SDS011;70071;55.130;61.268;2023-05-23T14:09:04;13.95;;;10.45;;
80163;SDS011;70071;55.130;61.268;2023-05-23T14:11:31;11.35;;;10.15;;
80163;SDS011;70071;55.130;61.268;2023-05-23T14:13:57;14.70;;;10.60;;
80163;SDS011;70071;55.130;61.268;2023-05-23T14:16:23;11.73;;;10.45;;
80163;SDS011;70071;55.130;61.268;2023-05-23T14:18:49;13.82;;;10.23;;
80163;SDS011;70071;55.130;61.268;2023-05-23T14:21:15;12.40;;;10.30;;
80163;SDS011;70071;55.130;61.268;2023-05-23T14:23:41;15.48;;;10.27;;
80163;SDS011;70071;55.130;61.268;2023-05-23T14:26:07;20.17;;;11.80;;
80163;SDS011;70071;55.130;61.268;2023-05-23T14:28:33;14.90;;;11.15;;
80163;SDS011;70071;55.130;61.268;2023-05-23T14:30:59;13.93;;;11.30;;
80163;SDS011;70071;55.130;61.268;2023-05-23T14:33:25;13.07;;;10.80;;
80163;SDS011;70071;55.130;61.268;2023-05-23T14:35:51;12.02;;;10.75;;
80163;SDS011;70071;55.130;61.268;2023-05-23T14:38:17;13.35;;;10.20;;
80163;SDS011;70071;55.130;61.268;2023-05-23T14:40:43;13.00;;;10.65;;
80163;SDS011;70071;55.130;61.268;2023-05-23T14:43:09;14.23;;;10.25;;
80163;SDS011;70071;55.130;61.268;2023-05-23T14:45:35;15.77;;;10.90;;
80163;SDS011;70071;55.130;61.268;2023-05-23T14:48:02;14.13;;;9.90;;
80163;SDS011;70071;55.130;61.268;2023-05-23T14:50:29;15.18;;;10.25;;
80163;SDS011;70071;55.130;61.268;2023-05-23T14:52:55;13.18;;;10.85;;
80163;SDS011;70071;55.130;61.268;2023-05-23T14:55:21;13.00;;;10.80;;
80163;SDS011;70071;55.130;61.268;2023-05-23T14:57:48;17.40;;;11.20;;
80163;SDS011;70071;55.130;61.268;2023-05-23T15:00:14;13.85;;;10.70;;
80163;SDS011;70071;55.130;61.268;2023-05-23T15:02:40;14.02;;;11.07;;
80163;SDS011;70071;55.130;61.268;2023-05-23T15:05:06;15.70;;;10.57;;
80163;SDS011;70071;55.130;61.268;2023-05-23T15:07:32;11.93;;;10.45;;
80163;SDS011;70071;55.130;61.268;2023-05-23T15:09:59;17.17;;;10.70;;
80163;SDS011;70071;55.130;61.268;2023-05-23T15:12:27;12.57;;;10.80;;
80163;SDS011;70071;55.130;61.268;2023-05-23T15:14:53;14.40;;;10.35;;
80163;SDS011;70071;55.130;61.268;2023-05-23T15:17:35;14.18;;;11.13;;
80163;SDS011;70071;55.130;61.268;2023-05-23T15:20:01;14.25;;;10.68;;
80163;SDS011;70071;55.130;61.268;2023-05-23T15:22:31;13.18;;;10.95;;
80163;SDS011;70071;55.130;61.268;2023-05-23T15:24:57;13.68;;;11.07;;
80163;SDS011;70071;55.130;61.268;2023-05-23T15:27:25;13.95;;;10.63;;
80163;SDS011;70071;55.130;61.268;2023-05-23T15:29:51;15.57;;;11.07;;
80163;SDS011;70071;55.130;61.268;2023-05-23T15:32:20;14.68;;;11.15;;
80163;SDS011;70071;55.130;61.268;2023-05-23T15:34:46;15.90;;;11.15;;
80163;SDS011;70071;55.130;61.268;2023-05-23T15:37:12;14.68;;;11.55;;
80163;SDS011;70071;55.130;61.268;2023-05-23T15:39:41;14.95;;;10.82;;
80163;SDS011;70071;55.130;61.268;2023-05-23T15:42:07;13.82;;;11.02;;
80163;SDS011;70071;55.130;61.268;2023-05-23T15:44:33;12.90;;;11.23;;
80163;SDS011;70071;55.130;61.268;2023-05-23T15:46:59;16.15;;;11.48;;